Time;durP1;ratioP1;P1;durP2;ratioP2;P2;SDS_P1;SDS_P2;PMS_P1;PMS_P2;Temp;Humidity;BMP_temperature;BMP_pressure;BME280_temperature;BME280_humidity;BME280_pressure;Samples;Min_cycle;Max_cycle;Signal;HPM_P1;HPM_P2
2022/01/18 05:30:28;;;;;;;;;27.50;24.00;;;;;6.61;70.49;103376.09;5066129;27;45862;-75
2022/01/18 05:32:54;;;;;;;;;40.75;28.00;;;;;6.62;70.08;103378.78;5054667;28;45376;-76
2022/01/18 05:35:20;;;;;;;;;35.50;26.00;;;;;6.53;70.38;103352.03;5055424;28;45365;-76
2022/01/18 05:37:49;;;;;;;;;37.00;26.75;;;;;6.70;70.09;103386.88;5055479;28;45667;-77
2022/01/18 05:40:16;;;;;;;;;27.75;26.00;;;;;6.72;70.21;103372.69;5055498;28;45315;-76
2022/01/18 05:42:42;;;;;;;;;36.50;29.50;;;;;6.76;70.16;103369.19;5046193;28;45898;-76
2022/01/18 05:45:09;;;;;;;;;31.50;26.00;;;;;6.77;69.72;103362.09;5037571;28;45633;-77
2022/01/18 05:47:35;;;;;;;;;28.50;22.25;;;;;6.76;69.54;103358.53;5059828;28;45961;-77
2022/01/18 05:50:01;;;;;;;;;24.00;16.25;;;;;6.83;69.67;103363.03;5062192;28;46079;-75
2022/01/18 05:52:27;;;;;;;;;26.75;25.25;;;;;6.77;69.55;103344.31;5056072;28;45204;-76
2022/01/18 05:54:53;;;;;;;;;29.00;21.50;;;;;6.85;69.36;103371.06;5056173;28;45394;-77
2022/01/18 05:57:18;;;;;;;;;31.50;23.50;;;;;6.86;69.58;103367.53;5055522;28;45546;-76
2022/01/18 05:59:46;;;;;;;;;33.75;27.75;;;;;6.83;69.40;103378.13;5036696;28;48324;-75
2022/01/18 06:02:17;;;;;;;;;28.75;21.75;;;;;6.84;69.51;103375.50;5054756;28;45334;-76
2022/01/18 06:07:29;;;;;;;;;28.00;21.25;;;;;6.79;69.25;103365.66;5054675;28;45458;-75
2022/01/18 06:09:56;;;;;;;;;30.25;24.00;;;;;6.79;69.29;103366.56;5055110;28;45349;-75
2022/01/18 06:12:27;;;;;;;;;25.25;20.00;;;;;6.60;69.26;103340.56;5055042;28;45402;-78
2022/01/18 06:14:55;;;;;;;;;29.25;23.25;;;;;6.77;69.44;103372.75;5058932;28;45303;-77
2022/01/18 06:17:20;;;;;;;;;28.00;22.25;;;;;6.79;69.37;103371.00;5055456;28;45438;-76
2022/01/18 06:19:45;;;;;;;;;27.50;19.50;;;;;6.80;69.49;103373.66;5055112;28;45990;-73
2022/01/18 06:22:11;;;;;;;;;34.25;23.00;;;;;6.67;69.21;103366.41;5053614;28;45453;-75
2022/01/18 06:24:36;;;;;;;;;23.75;21.50;;;;;6.66;69.44;103385.94;5054290;28;45335;-77
2022/01/18 06:27:02;;;;;;;;;25.25;19.75;;;;;6.65;69.89;103378.81;5036150;28;46889;-78
2022/01/18 06:29:27;;;;;;;;;19.75;14.75;;;;;6.72;69.75;103387.81;5054308;28;45751;-76
2022/01/18 06:31:52;;;;;;;;;23.25;19.25;;;;;6.71;69.51;103386.00;5054082;28;45452;-74
2022/01/18 06:34:18;;;;;;;;;24.00;15.00;;;;;6.61;69.51;103376.09;5065374;28;45719;-77
2022/01/18 06:36:44;;;;;;;;;21.75;16.50;;;;;6.69;69.20;103393.09;5056477;28;45225;-78
2022/01/18 06:39:10;;;;;;;;;22.50;19.00;;;;;6.61;69.63;103379.66;5036061;28;47131;-73
2022/01/18 06:41:36;;;;;;;;;24.25;16.75;;;;;6.57;69.66;103383.16;5053774;28;45392;-74
2022/01/18 06:44:02;;;;;;;;;24.75;19.75;;;;;6.58;69.44;103392.94;5036150;28;45285;-73
2022/01/18 06:46:27;;;;;;;;;28.75;19.50;;;;;6.55;69.92;103384.91;5053518;28;45492;-73
2022/01/18 06:48:53;;;;;;;;;25.50;20.75;;;;;6.53;69.93;103391.09;5053798;28;46047;-75
2022/01/18 06:51:19;;;;;;;;;22.25;14.50;;;;;6.43;69.95;103390.97;5054302;28;45351;-75
2022/01/18 06:53:46;;;;;;;;;28.75;19.25;;;;;6.43;69.61;103393.66;5035791;28;45345;-77
2022/01/18 06:56:17;;;;;;;;;22.75;16.25;;;;;6.41;70.07;103391.81;5053473;28;45454;-74
2022/01/18 06:58:44;;;;;;;;;18.50;18.00;;;;;6.39;70.06;103388.25;5053851;28;46108;-73
2022/01/18 07:01:11;;;;;;;;;21.75;20.75;;;;;6.40;70.66;103390.94;5067175;28;45801;-74
2022/01/18 07:03:37;;;;;;;;;23.75;17.75;;;;;6.35;69.98;103387.31;5056674;28;45425;-74
2022/01/18 07:06:03;;;;;;;;;22.25;19.25;;;;;6.29;70.29;103389.91;5057096;28;45309;-75
2022/01/18 07:08:30;;;;;;;;;20.75;19.25;;;;;6.29;70.38;103384.56;5057187;28;45997;-76
2022/01/18 07:10:56;;;;;;;;;31.75;22.00;;;;;6.29;70.74;103391.69;5057352;28;45487;-75
2022/01/18 07:13:22;;;;;;;;;20.00;16.25;;;;;6.31;70.50;103385.47;5057767;28;45241;-76
2022/01/18 07:15:47;;;;;;;;;17.25;11.00;;;;;6.34;70.63;103381.97;5057106;28;45363;-74
2022/01/18 07:18:12;;;;;;;;;25.00;20.50;;;;;6.34;70.33;103387.28;5056617;28;46221;-75
2022/01/18 07:20:38;;;;;;;;;20.75;18.50;;;;;6.25;70.73;103372.06;5056808;28;45195;-76
2022/01/18 07:23:07;;;;;;;;;19.75;18.00;;;;;6.25;70.84;103374.75;5056730;28;45455;-75
2022/01/18 07:25:33;;;;;;;;;29.50;20.75;;;;;6.31;70.41;103389.91;5056286;28;45552;-76
2022/01/18 07:27:58;;;;;;;;;29.00;19.75;;;;;6.32;70.68;103389.03;5056637;28;46648;-76
2022/01/18 07:30:24;;;;;;;;;31.75;23.00;;;;;6.21;70.76;103372.88;5038423;28;45297;-75
2022/01/18 07:32:50;;;;;;;;;26.25;20.75;;;;;6.09;70.85;103354.09;5056504;28;45359;-75
2022/01/18 07:35:15;;;;;;;;;25.00;25.00;;;;;6.26;70.72;103378.31;5056762;28;45379;-76
2022/01/18 07:37:41;;;;;;;;;28.75;21.25;;;;;6.23;70.65;103368.50;5056721;28;45785;-75
2022/01/18 07:40:07;;;;;;;;;23.50;19.50;;;;;6.23;70.81;103370.25;5056388;28;45698;-76
2022/01/18 07:42:33;;;;;;;;;28.75;22.75;;;;;6.08;71.00;103341.66;5056818;28;45374;-76
2022/01/18 07:44:58;;;;;;;;;34.00;23.25;;;;;6.14;70.63;103357.69;5056333;28;46007;-74
2022/01/18 07:47:24;;;;;;;;;30.50;29.75;;;;;6.15;70.65;103364.81;5056304;28;45402;-74
2022/01/18 07:49:49;;;;;;;;;37.25;26.50;;;;;6.02;71.05;103366.44;5056433;28;45469;-76
2022/01/18 07:52:18;;;;;;;;;41.50;32.75;;;;;5.94;71.77;103370.75;5056700;28;45213;-76
2022/01/18 07:54:44;;;;;;;;;34.75;27.25;;;;;5.82;71.96;103362.53;5056468;28;45472;-74
2022/01/18 07:57:12;;;;;;;;;36.25;26.00;;;;;5.84;71.66;103363.44;5037997;28;47305;-75
2022/01/18 07:59:37;;;;;;;;;39.50;24.00;;;;;5.89;71.95;103366.19;5055991;28;45362;-76
2022/01/18 08:02:03;;;;;;;;;31.25;25.75;;;;;5.83;71.88;103374.97;5056183;28;45324;-75
2022/01/18 08:04:28;;;;;;;;;33.00;30.25;;;;;5.83;71.64;103369.66;5055850;28;45646;-75
2022/01/18 08:06:53;;;;;;;;;40.75;25.50;;;;;5.79;72.18;103345.59;5037920;28;47406;-75
2022/01/18 08:09:19;;;;;;;;;36.75;25.75;;;;;5.85;71.89;103364.34;5055886;28;45234;-76
2022/01/18 08:11:51;;;;;;;;;33.75;29.25;;;;;5.81;71.95;103339.44;5037823;28;45188;-75
2022/01/18 08:14:17;;;;;;;;;33.50;28.75;;;;;5.86;71.55;103345.75;5055195;28;45215;-75
2022/01/18 08:17:04;;;;;;;;;37.75;25.75;;;;;5.90;72.15;103355.59;5055731;28;45769;-75
2022/01/18 08:19:32;;;;;;;;;37.50;28.25;;;;;5.88;72.02;103357.31;5055868;28;45291;-75
2022/01/18 08:21:59;;;;;;;;;38.50;27.75;;;;;5.63;72.26;103313.44;5055788;28;45506;-76
2022/01/18 08:24:25;;;;;;;;;40.50;31.00;;;;;5.80;72.05;103340.31;5056074;28;45481;-75
2022/01/18 08:26:50;;;;;;;;;33.25;25.75;;;;;5.88;71.90;103343.13;5056186;28;45429;-75
2022/01/18 08:29:16;;;;;;;;;34.25;24.00;;;;;5.70;71.96;103317.06;5055863;28;45386;-75
2022/01/18 08:31:41;;;;;;;;;31.25;27.50;;;;;5.89;72.11;103344.91;5037014;28;45484;-75
2022/01/18 08:34:07;;;;;;;;;37.00;24.50;;;;;5.92;71.90;103348.53;5055772;28;45331;-75
2022/01/18 08:36:32;;;;;;;;;32.25;24.50;;;;;5.97;72.11;103353.91;5055737;28;45445;-75
2022/01/18 08:39:00;;;;;;;;;23.00;20.75;;;;;5.92;71.60;103339.63;5055692;28;45370;-75
2022/01/18 08:41:27;;;;;;;;;32.25;26.25;;;;;6.06;71.90;103354.94;5055437;28;45415;-75
2022/01/18 08:43:53;;;;;;;;;23.25;19.25;;;;;6.13;71.85;103360.34;5055338;28;45509;-76
2022/01/18 08:46:19;;;;;;;;;33.50;24.50;;;;;6.19;71.63;103357.78;5054904;28;45369;-76
2022/01/18 08:48:45;;;;;;;;;34.50;25.75;;;;;6.23;71.22;103363.16;5036997;28;45340;-74
2022/01/18 08:51:11;;;;;;;;;34.50;27.25;;;;;6.28;71.25;103353.47;5055549;28;45338;-74
2022/01/18 08:53:37;;;;;;;;;30.00;21.75;;;;;6.30;71.46;103349.03;5055137;28;45427;-75
2022/01/18 08:56:04;;;;;;;;;30.25;21.50;;;;;6.39;71.49;103357.16;5055075;28;46657;-76
2022/01/18 08:58:29;;;;;;;;;27.25;21.00;;;;;6.49;71.38;103358.19;5037230;28;45261;-75
2022/01/18 09:00:54;;;;;;;;;27.75;25.00;;;;;6.50;71.09;103348.41;5055185;28;45870;-76
2022/01/18 09:03:21;;;;;;;;;33.25;22.75;;;;;6.60;70.82;103348.56;5055068;28;45324;-76
2022/01/18 09:05:47;;;;;;;;;25.75;22.25;;;;;6.66;70.53;103339.72;5037019;28;45996;-74
2022/01/18 09:08:13;;;;;;;;;31.25;23.25;;;;;6.68;70.88;103335.31;5055200;28;45245;-75
2022/01/18 09:10:41;;;;;;;;;22.75;21.25;;;;;6.82;70.13;103347.03;5055493;28;45377;-76
2022/01/18 09:13:07;;;;;;;;;25.00;21.25;;;;;6.87;70.53;103352.41;5055340;28;45208;-75
2022/01/18 09:15:33;;;;;;;;;21.00;18.50;;;;;6.93;70.64;103358.72;5055070;28;46318;-76
2022/01/18 09:17:58;;;;;;;;;31.75;20.50;;;;;6.98;70.19;103356.06;5054997;28;45470;-77
2022/01/18 09:20:24;;;;;;;;;24.75;21.75;;;;;7.03;70.67;103352.59;5054821;28;45541;-75
2022/01/18 09:22:52;;;;;;;;;16.50;14.00;;;;;7.12;69.97;103359.81;5054855;28;45365;-74
2022/01/18 09:25:23;;;;;;;;;24.25;21.50;;;;;7.17;70.29;103348.28;5054448;28;46350;-75
2022/01/18 09:27:50;;;;;;;;;26.00;23.50;;;;;7.21;70.73;103339.44;5056818;28;45291;-76
2022/01/18 09:30:15;;;;;;;;;19.00;17.75;;;;;7.27;70.83;103335.94;5054678;28;45466;-75
2022/01/18 09:32:45;;;;;;;;;30.50;22.50;;;;;7.33;70.70;103351.97;5054203;28;45395;-75
2022/01/18 09:35:12;;;;;;;;;32.25;25.25;;;;;7.38;70.58;103344.94;5054696;28;45326;-75
2022/01/18 09:37:38;;;;;;;;;29.25;25.50;;;;;7.37;70.39;103339.59;5054831;28;45372;-75
2022/01/18 09:40:05;;;;;;;;;25.25;20.75;;;;;7.21;70.16;103298.53;5054444;28;45391;-76
2022/01/18 09:42:34;;;;;;;;;28.00;24.75;;;;;7.45;70.48;103329.84;5054500;28;45503;-75
2022/01/18 09:45:06;;;;;;;;;26.25;24.00;;;;;7.49;69.90;103340.56;5054492;28;46500;-76
2022/01/18 09:47:32;;;;;;;;;22.25;20.25;;;;;7.44;70.10;103314.72;5054220;28;45369;-75
2022/01/18 09:49:58;;;;;;;;;32.25;27.25;;;;;7.46;69.85;103321.88;5054848;28;45426;-74
2022/01/18 09:52:24;;;;;;;;;28.00;23.00;;;;;7.54;69.96;103338.84;5036826;28;45565;-75
2022/01/18 09:54:49;;;;;;;;;28.00;22.75;;;;;7.54;70.03;103338.84;5054638;28;45542;-75
2022/01/18 09:57:15;;;;;;;;;30.25;25.00;;;;;7.52;70.25;103331.69;5054743;28;45461;-75
2022/01/18 09:59:41;;;;;;;;;26.50;24.50;;;;;7.60;69.99;103343.31;5054425;28;45321;-75
2022/01/18 10:02:09;;;;;;;;;33.75;27.25;;;;;7.65;70.15;103344.28;5053933;28;45311;-77
2022/01/18 10:04:44;;;;;;;;;36.00;29.50;;;;;7.68;70.16;103324.69;5054241;28;45485;-76
2022/01/18 10:07:10;;;;;;;;;33.00;25.25;;;;;7.69;69.66;103335.38;5036153;28;45397;-75
2022/01/18 10:09:37;;;;;;;;;29.25;26.25;;;;;7.75;69.68;103331.84;5054636;28;45405;-75
2022/01/18 10:12:11;;;;;;;;;31.00;27.00;;;;;7.79;70.07;103339.03;5054283;28;45494;-74
2022/01/18 10:15:01;;;;;;;;;28.25;24.50;;;;;7.82;70.08;103339.94;5036147;28;46494;-76
2022/01/18 10:17:40;;;;;;;;;27.25;25.00;;;;;7.80;70.06;103320.34;5053389;28;45348;-75
2022/01/18 10:20:06;;;;;;;;;29.75;27.00;;;;;7.87;69.94;103327.50;5054267;28;45258;-75
2022/01/18 10:22:41;;;;;;;;;32.00;25.75;;;;;7.90;70.25;103326.66;5054006;28;45638;-74
2022/01/18 10:25:24;;;;;;;;;25.75;23.25;;;;;7.95;70.13;103324.88;5054151;28;46332;-75
2022/01/18 10:27:53;;;;;;;;;28.50;26.00;;;;;7.98;69.71;103323.13;5054346;28;45497;-75
2022/01/18 10:30:44;;;;;;;;;28.75;24.25;;;;;7.98;69.82;103317.78;5054034;28;45374;-78
2022/01/18 10:33:17;;;;;;;;;29.75;27.00;;;;;8.07;70.19;103316.06;5053572;28;45284;-75
2022/01/18 10:36:10;;;;;;;;;29.75;24.75;;;;;8.14;69.75;103309.84;5054249;28;45623;-76
2022/01/18 10:38:38;;;;;;;;;26.25;21.50;;;;;8.20;69.97;103296.50;5057430;28;45339;-75
2022/01/18 10:41:23;;;;;;;;;33.75;28.50;;;;;8.09;69.36;103261.72;5057897;28;45254;-75
2022/01/18 10:44:15;;;;;;;;;26.75;21.75;;;;;8.31;68.94;103290.38;5046554;28;46252;-74
2022/01/18 10:46:40;;;;;;;;;22.25;15.75;;;;;8.38;68.88;103287.72;5055809;28;45526;-77
2022/01/18 10:49:08;;;;;;;;;23.00;21.00;;;;;8.40;68.92;103276.16;5055475;28;45468;-76
2022/01/18 10:51:40;;;;;;;;;31.75;20.50;;;;;8.47;68.84;103277.06;5057158;28;45332;-76
2022/01/18 10:54:07;;;;;;;;;23.00;19.00;;;;;8.47;68.22;103267.25;5056757;28;45516;-75
2022/01/18 10:56:47;;;;;;;;;31.00;23.25;;;;;8.58;68.16;103265.53;5056905;28;46203;-76
2022/01/18 10:59:21;;;;;;;;;29.25;21.50;;;;;8.69;68.14;103257.50;5037120;28;45424;-76
2022/01/18 11:02:20;;;;;;;;;26.75;23.50;;;;;8.73;67.69;103254.84;5055161;28;45631;-75
2022/01/18 11:04:54;;;;;;;;;27.00;20.00;;;;;8.83;67.01;103249.53;5056001;28;45727;-75
2022/01/18 11:07:22;;;;;;;;;30.75;20.75;;;;;8.93;67.15;103257.53;5056486;28;46253;-76
2022/01/18 11:09:49;;;;;;;;;23.00;21.25;;;;;8.80;66.56;103215.63;5056887;28;45357;-77
2022/01/18 11:12:15;;;;;;;;;25.25;20.75;;;;;9.08;66.25;103248.66;5056817;28;45494;-76
2022/01/18 11:14:44;;;;;;;;;32.00;24.00;;;;;9.02;66.26;103208.50;5056408;28;45560;-76
2022/01/18 11:17:11;;;;;;;;;24.00;17.25;;;;;9.25;66.28;103217.41;5055620;28;45476;-77
2022/01/18 11:19:38;;;;;;;;;26.00;20.50;;;;;9.38;65.63;103212.94;5055703;28;45436;-76
2022/01/18 11:22:10;;;;;;;;;18.50;14.75;;;;;9.40;64.99;103195.97;5056620;28;45609;-76
2022/01/18 11:24:40;;;;;;;;;29.00;24.75;;;;;9.76;64.83;103216.41;5060905;28;45664;-74
2022/01/18 11:27:11;;;;;;;;;24.50;21.25;;;;;10.16;63.34;103195.69;5062077;28;45492;-76
2022/01/18 11:29:37;;;;;;;;;13.00;11.75;;;;;11.14;60.24;103193.25;5067809;28;46983;-77
2022/01/18 11:32:03;;;;;;;;;16.00;13.50;;;;;12.37;57.09;103190.91;5065063;28;45500;-76
2022/01/18 11:34:49;;;;;;;;;16.75;14.75;;;;;13.57;53.48;103180.81;5059502;28;45582;-77
2022/01/18 11:37:23;;;;;;;;;13.00;12.00;;;;;14.93;48.95;103167.88;5054411;28;45408;-75
2022/01/18 11:39:57;;;;;;;;;15.00;13.75;;;;;16.24;47.27;103162.38;5054602;28;45258;-76
2022/01/18 11:42:23;;;;;;;;;14.25;12.25;;;;;17.26;43.77;103150.88;5057168;28;45227;-77
2022/01/18 11:44:48;;;;;;;;;16.50;14.00;;;;;18.12;41.38;103141.28;5055527;28;45669;-79
2022/01/18 11:47:26;;;;;;;;;12.75;10.25;;;;;18.91;38.65;103138.06;5056004;28;46640;-78
2022/01/18 11:49:52;;;;;;;;;10.00;8.00;;;;;19.18;37.64;103125.97;5054296;28;45370;-79
2022/01/18 11:52:34;;;;;;;;;14.75;12.25;;;;;19.31;38.06;103148.06;5062016;28;45484;-79
2022/01/18 11:55:00;;;;;;;;;17.75;14.00;;;;;18.85;38.28;103141.03;5061889;28;45471;-80
2022/01/18 11:57:27;;;;;;;;;13.00;12.00;;;;;18.33;39.50;103135.00;5056414;28;45496;-81
2022/01/18 11:59:58;;;;;;;;;12.75;12.75;;;;;17.54;40.32;103123.59;5059031;28;45426;-80
2022/01/18 12:02:37;;;;;;;;;13.50;11.50;;;;;16.94;41.19;103133.88;5056018;28;45453;-80
2022/01/18 12:05:13;;;;;;;;;10.25;7.75;;;;;16.27;42.27;103125.25;5056559;28;45609;-81
2022/01/18 12:07:44;;;;;;;;;8.00;7.75;;;;;15.69;42.92;103138.78;5056027;28;45563;-78
2022/01/18 12:10:34;;;;;;;;;12.25;9.00;;;;;15.07;44.40;103130.59;5057100;28;45268;-76
2022/01/18 12:13:12;;;;;;;;;11.50;7.50;;;;;14.63;45.14;103132.59;5057188;28;45327;-76
2022/01/18 12:15:41;;;;;;;;;10.00;7.25;;;;;14.17;45.72;103123.81;5038836;28;46654;-76
2022/01/18 12:18:22;;;;;;;;;10.50;8.00;;;;;13.77;46.78;103122.00;5058604;28;45327;-74
2022/01/18 12:20:49;;;;;;;;;12.75;11.25;;;;;13.38;47.47;103121.00;5057477;28;45319;-76
2022/01/18 12:23:24;;;;;;;;;13.00;7.75;;;;;13.03;48.50;103100.09;5057183;28;45399;-76
2022/01/18 12:25:58;;;;;;;;;9.25;6.75;;;;;12.83;49.00;103119.31;5058535;28;45605;-76
2022/01/18 12:28:35;;;;;;;;;5.25;5.25;;;;;12.54;49.43;103107.25;5057890;28;47219;-76
2022/01/18 12:31:23;;;;;;;;;12.00;10.50;;;;;12.27;49.73;103095.13;5057814;28;45280;-77
2022/01/18 12:33:51;;;;;;;;;11.00;9.25;;;;;11.96;50.57;103079.47;5057838;28;45524;-76
2022/01/18 12:36:30;;;;;;;;;9.75;6.75;;;;;11.88;51.27;103099.31;5057240;28;45394;-75
2022/01/18 12:39:03;;;;;;;;;10.00;10.00;;;;;11.71;51.76;103092.31;5057749;28;46106;-76
2022/01/18 12:41:46;;;;;;;;;13.25;10.00;;;;;11.41;51.66;103044.34;5057439;28;45287;-75
2022/01/18 12:44:21;;;;;;;;;17.75;12.25;;;;;11.43;52.36;103073.88;5057735;28;45323;-76
2022/01/18 12:46:58;;;;;;;;;14.00;9.00;;;;;11.28;53.29;103061.53;5057361;28;45333;-76
2022/01/18 12:49:24;;;;;;;;;10.50;9.50;;;;;11.32;53.62;103082.06;5057012;28;46667;-76
2022/01/18 12:51:58;;;;;;;;;11.00;9.25;;;;;11.26;53.58;103074.97;5056800;28;45255;-76
2022/01/18 12:54:38;;;;;;;;;13.75;10.75;;;;;11.22;54.57;103066.97;5039261;28;45339;-75
2022/01/18 12:57:13;;;;;;;;;11.00;10.50;;;;;11.19;54.77;103070.59;5057576;28;45358;-76
2022/01/18 12:59:59;;;;;;;;;13.75;12.00;;;;;11.24;55.02;103070.50;5056160;28;45339;-76
2022/01/18 13:02:26;;;;;;;;;12.75;11.50;;;;;11.24;55.14;103063.34;5056247;28;45355;-75
2022/01/18 13:04:59;;;;;;;;;8.00;5.25;;;;;11.26;54.90;103066.03;5039273;28;45395;-75
2022/01/18 13:07:25;;;;;;;;;14.00;12.50;;;;;11.21;55.04;103046.41;5057777;28;45479;-75
2022/01/18 13:10:03;;;;;;;;;15.75;12.75;;;;;11.18;55.39;103041.94;5057445;28;46480;-76
2022/01/18 13:12:31;;;;;;;;;13.50;12.50;;;;;11.09;55.25;103034.00;5056538;28;45219;-75
2022/01/18 13:14:58;;;;;;;;;12.50;10.00;;;;;11.05;55.94;103034.06;5056663;28;45625;-76
2022/01/18 13:23:53;;;;;;;;;15.75;13.00;;;;;11.16;55.95;103019.59;5033971;28;45314;-76
2022/01/18 13:26:28;;;;;;;;;17.00;12.75;;;;;11.22;56.01;103013.28;5057796;28;45514;-75
2022/01/18 13:28:53;;;;;;;;;11.25;9.00;;;;;11.27;55.83;103008.72;5057350;28;45681;-76
2022/01/18 13:31:22;;;;;;;;;14.25;11.25;;;;;11.30;55.75;103008.69;5056168;28;46149;-76
2022/01/18 13:34:00;;;;;;;;;10.50;8.50;;;;;11.30;55.69;102993.47;5056878;28;45431;-76
2022/01/18 13:36:29;;;;;;;;;15.00;13.00;;;;;11.20;55.30;102969.44;5037912;28;45326;-76
2022/01/18 13:38:55;;;;;;;;;15.00;11.25;;;;;11.26;55.16;102988.16;5056689;28;45637;-76
2022/01/18 13:41:21;;;;;;;;;9.00;9.00;;;;;11.26;54.82;102983.66;5056213;28;46393;-75
2022/01/18 13:43:47;;;;;;;;;9.00;9.00;;;;;11.26;54.62;102990.84;5056429;28;45409;-75
2022/01/18 13:46:24;;;;;;;;;10.25;8.25;;;;;11.12;54.35;102980.28;5056000;28;45557;-76
2022/01/18 13:49:02;;;;;;;;;12.75;10.75;;;;;11.10;55.16;102978.53;5056035;28;45579;-75
2022/01/18 13:51:28;;;;;;;;;11.25;10.50;;;;;11.08;54.29;102980.31;5037702;28;46232;-75
2022/01/18 13:53:58;;;;;;;;;10.25;8.00;;;;;11.03;54.68;102979.50;5055928;28;45317;-76
2022/01/18 13:56:26;;;;;;;;;11.75;7.75;;;;;11.08;55.01;102981.22;5055452;28;45202;-75
2022/01/18 13:59:00;;;;;;;;;14.50;8.50;;;;;10.90;54.86;102950.13;5056250;28;45392;-74
2022/01/18 14:01:28;;;;;;;;;8.00;7.25;;;;;10.98;54.95;102960.75;5055663;28;46495;-80
2022/01/18 14:03:56;;;;;;;;;11.00;8.00;;;;;11.08;54.68;102972.28;5054450;28;45430;-79
2022/01/18 14:06:38;;;;;;;;;10.00;9.00;;;;;11.06;54.63;102961.56;5054756;28;45246;-77
2022/01/18 14:09:04;;;;;;;;;10.00;7.00;;;;;11.11;55.44;102965.09;5054404;28;45476;-73
2022/01/18 14:11:35;;;;;;;;;15.25;10.75;;;;;11.14;55.19;102962.38;5053254;28;46388;-74
2022/01/18 14:14:04;;;;;;;;;15.25;10.00;;;;;11.18;54.76;102968.56;5054520;28;45263;-76
2022/01/18 14:16:36;;;;;;;;;10.25;8.75;;;;;11.18;54.59;102961.41;5036349;28;45630;-75
2022/01/18 14:19:10;;;;;;;;;9.00;9.00;;;;;11.25;54.24;102976.53;5054454;28;45339;-73
2022/01/18 14:21:42;;;;;;;;;11.00;9.25;;;;;11.26;54.26;102950.56;5054233;28;46361;-74
2022/01/18 14:24:44;;;;;;;;;10.00;9.25;;;;;11.22;54.05;102930.94;5054527;28;45410;-73
2022/01/18 14:27:13;;;;;;;;;7.25;6.50;;;;;11.56;54.47;102951.94;5051443;28;45650;-74
2022/01/18 14:29:41;;;;;;;;;9.50;7.50;;;;;11.91;54.10;102946.06;5054736;28;45378;-73
2022/01/18 14:32:09;;;;;;;;;9.25;7.25;;;;;12.28;52.77;102952.56;5035735;28;46664;-74
2022/01/18 14:34:49;;;;;;;;;7.00;6.00;;;;;12.62;51.40;102943.88;5054180;28;45296;-74
2022/01/18 14:37:14;;;;;;;;;11.75;10.25;;;;;12.86;51.16;102952.34;5056811;28;45539;-74
2022/01/18 14:40:00;;;;;;;;;12.25;9.50;;;;;13.18;50.23;102957.06;5037084;28;45778;-74
2022/01/18 14:42:40;;;;;;;;;12.00;8.00;;;;;13.44;49.23;102936.78;5054115;28;45185;-73
2022/01/18 14:45:59;;;;;;;;;11.00;10.75;;;;;13.71;49.04;102935.22;5040721;28;45359;-74
2022/01/18 14:47:53;;;;;;;;;13.50;9.50;;;;;13.91;48.02;102928.44;5039469;28;45466;-75
2022/01/18 14:50:22;;;;;;;;;9.25;8.25;;;;;14.11;47.19;102935.16;5054169;28;45273;-75
2022/01/18 14:52:49;;;;;;;;;10.50;6.50;;;;;14.18;46.76;102924.16;5053625;28;45366;-74
2022/01/18 14:55:17;;;;;;;;;9.00;7.50;;;;;14.33;46.78;102937.22;5054160;28;45497;-73
2022/01/18 14:57:44;;;;;;;;;11.00;9.75;;;;;14.32;46.72;102913.88;5053989;28;45299;-73
2022/01/18 15:00:13;;;;;;;;;9.25;9.25;;;;;14.51;47.10;102929.59;5054037;28;45641;-76
2022/01/18 15:02:39;;;;;;;;;10.75;10.00;;;;;14.51;45.88;102918.81;5035482;28;47342;-74
2022/01/18 15:05:06;;;;;;;;;12.50;6.75;;;;;14.64;45.92;102917.50;5035867;28;45306;-74
2022/01/18 15:07:32;;;;;;;;;10.25;8.00;;;;;14.71;46.00;102925.44;5053744;28;45405;-75
2022/01/18 15:09:58;;;;;;;;;7.50;7.50;;;;;14.70;46.03;102909.28;5054104;28;45298;-74
2022/01/18 15:12:23;;;;;;;;;8.75;8.75;;;;;14.77;46.07;102917.16;5053801;28;45606;-74
2022/01/18 15:14:48;;;;;;;;;10.00;10.00;;;;;14.76;45.98;102914.47;5054078;28;45234;-73
2022/01/18 15:17:14;;;;;;;;;12.75;9.50;;;;;14.81;45.71;102917.03;5053794;28;45288;-73
2022/01/18 15:19:39;;;;;;;;;9.00;9.00;;;;;14.76;45.51;102900.97;5054103;28;45584;-73
2022/01/18 15:22:06;;;;;;;;;13.25;11.75;;;;;14.76;45.72;102904.56;5053467;28;45316;-72
2022/01/18 15:24:31;;;;;;;;;11.50;8.25;;;;;14.65;46.03;102901.28;5056553;28;45327;-74
2022/01/18 15:26:59;;;;;;;;;11.25;8.75;;;;;14.50;46.99;102907.13;5057164;28;45321;-75
2022/01/18 15:29:26;;;;;;;;;9.75;8.75;;;;;14.33;47.02;102910.25;5057802;28;46200;-73
2022/01/18 15:31:51;;;;;;;;;11.25;10.75;;;;;14.12;47.16;102900.00;5056895;28;46114;-75
2022/01/18 15:34:16;;;;;;;;;9.75;8.25;;;;;13.94;47.78;102908.59;5057177;28;45337;-75
2022/01/18 15:36:42;;;;;;;;;5.00;5.00;;;;;13.82;48.17;102914.28;5057139;28;45302;-76
2022/01/18 15:39:07;;;;;;;;;15.00;9.75;;;;;13.60;48.13;102914.84;5056917;28;45374;-76
2022/01/18 15:41:32;;;;;;;;;10.50;9.50;;;;;13.50;48.60;102913.28;5038354;28;47475;-77
2022/01/18 15:43:58;;;;;;;;;14.00;11.00;;;;;13.31;48.77;102917.31;5057043;28;45256;-78
2022/01/18 15:46:26;;;;;;;;;11.50;9.75;;;;;13.13;49.16;102914.97;5056824;28;45434;-76
2022/01/18 15:48:51;;;;;;;;;12.50;9.00;;;;;12.99;49.60;102915.28;5038742;28;45876;-77
2022/01/18 15:51:17;;;;;;;;;14.00;10.25;;;;;12.95;49.84;102924.34;5056662;28;45200;-74
2022/01/18 15:53:43;;;;;;;;;12.00;10.25;;;;;12.61;50.58;102885.56;5056225;28;45229;-75
2022/01/18 15:56:08;;;;;;;;;9.75;8.25;;;;;12.74;50.65;102935.56;5056966;28;45418;-76
2022/01/18 15:58:34;;;;;;;;;14.00;9.75;;;;;12.49;50.78;102914.53;5057131;28;45540;-76
2022/01/18 16:00:59;;;;;;;;;10.50;10.00;;;;;12.51;51.08;102944.94;5056181;28;45327;-76
2022/01/18 16:03:24;;;;;;;;;10.00;10.00;;;;;12.43;51.23;102941.50;5056473;28;45383;-74
2022/01/18 16:05:52;;;;;;;;;12.25;10.75;;;;;12.34;51.86;102944.38;5056788;28;45374;-73
2022/01/18 16:08:18;;;;;;;;;11.00;9.25;;;;;12.24;51.85;102933.84;5056389;28;45341;-74
2022/01/18 16:10:43;;;;;;;;;8.75;5.75;;;;;12.15;52.37;102934.88;5056582;28;45563;-73
2022/01/18 16:13:09;;;;;;;;;9.00;5.25;;;;;12.13;52.13;102942.97;5056634;28;45375;-75
2022/01/18 16:15:34;;;;;;;;;13.25;9.00;;;;;12.05;52.57;102947.59;5056368;28;45248;-74
2022/01/18 16:18:00;;;;;;;;;10.50;10.50;;;;;11.96;52.85;102933.41;5056211;28;45151;-74
2022/01/18 16:20:25;;;;;;;;;6.00;5.50;;;;;11.94;52.65;102946.88;5056637;28;45941;-74
2022/01/18 16:22:52;;;;;;;;;9.75;7.00;;;;;11.86;52.50;102938.06;5056239;28;45346;-74
2022/01/18 16:25:18;;;;;;;;;7.75;6.75;;;;;11.83;52.53;102946.16;5056160;28;45339;-74
2022/01/18 16:27:43;;;;;;;;;9.00;6.50;;;;;11.75;52.05;102943.59;5056112;28;45399;-74
2022/01/18 16:30:10;;;;;;;;;9.00;5.00;;;;;11.72;51.87;102948.09;5055812;28;45378;-74
2022/01/18 16:32:37;;;;;;;;;6.00;5.00;;;;;11.65;51.98;102936.53;5037627;28;45496;-74
2022/01/18 16:35:04;;;;;;;;;9.00;6.00;;;;;11.49;51.89;102918.00;5054720;28;45369;-74
2022/01/18 16:37:31;;;;;;;;;7.00;5.00;;;;;11.44;52.16;102910.03;5056236;28;45363;-74
2022/01/18 16:39:57;;;;;;;;;7.75;5.00;;;;;11.52;51.97;102943.03;5055688;28;45693;-75
2022/01/18 16:42:23;;;;;;;;;6.00;4.00;;;;;11.47;51.59;102939.53;5056073;28;45347;-75
2022/01/18 16:44:48;;;;;;;;;4.00;4.00;;;;;11.37;52.47;102930.72;5055800;28;45513;-73
2022/01/18 16:47:13;;;;;;;;;7.25;4.25;;;;;11.38;52.79;102934.28;5055868;28;45652;-74
2022/01/18 16:49:39;;;;;;;;;3.00;3.00;;;;;11.33;52.47;102938.81;5055564;28;45477;-74
2022/01/18 16:52:05;;;;;;;;;4.00;4.00;;;;;11.21;52.89;102923.78;5037442;28;45332;-74
2022/01/18 16:54:31;;;;;;;;;8.25;8.25;;;;;11.27;53.66;102933.53;5055373;28;45494;-74
2022/01/18 16:56:58;;;;;;;;;10.50;9.00;;;;;11.21;54.04;102947.06;5055762;28;45390;-73
2022/01/18 16:59:23;;;;;;;;;12.00;9.00;;;;;11.09;53.96;102932.00;5055400;28;45333;-74
2022/01/18 17:01:49;;;;;;;;;9.25;9.25;;;;;11.15;54.84;102941.75;5055474;28;45394;-75
2022/01/18 17:04:14;;;;;;;;;8.75;8.75;;;;;11.11;54.85;102938.25;5055619;28;45386;-74